createdAt,value
2023-03-25T00:00:32.810Z,100.00
2023-03-25T00:03:37.451Z,100.00
2023-03-25T00:06:39.141Z,100.00
2023-03-25T00:09:40.528Z,100.00
2023-03-25T00:12:42.601Z,100.00
2023-03-25T00:15:47.512Z,100.00
2023-03-25T00:18:49.832Z,100.00
2023-03-25T00:21:52.102Z,100.00
2023-03-25T00:24:53.639Z,100.00
2023-03-25T00:27:55.015Z,100.00
2023-03-25T00:31:01.018Z,100.00
2023-03-25T00:34:02.651Z,100.00
2023-03-25T00:37:04.034Z,100.00
2023-03-25T00:40:06.167Z,100.00
2023-03-25T00:43:07.638Z,100.00
2023-03-25T00:46:09.285Z,100.00
2023-03-25T00:49:12.127Z,100.00
2023-03-25T00:52:14.213Z,100.00
2023-03-25T00:55:16.010Z,100.00
2023-03-25T00:58:17.443Z,100.00
2023-03-25T01:01:27.141Z,100.00
2023-03-25T01:04:29.665Z,100.00
2023-03-25T01:07:32.643Z,100.00
2023-03-25T01:10:37.595Z,100.00
2023-03-25T01:13:39.015Z,100.00
2023-03-25T01:16:40.449Z,100.00
2023-03-25T01:19:42.110Z,100.00
2023-03-25T01:22:43.649Z,100.00
2023-03-25T01:25:45.162Z,100.00
2023-03-25T01:28:46.552Z,100.00
2023-03-25T01:31:48.851Z,100.00
2023-03-25T01:34:50.279Z,100.00
2023-03-25T01:37:54.534Z,100.00
2023-03-25T01:40:57.186Z,100.00
2023-03-25T01:44:02.483Z,100.00
2023-03-25T01:47:06.712Z,100.00
2023-03-25T01:50:08.627Z,100.00
2023-03-25T01:53:10.567Z,100.00
2023-03-25T01:56:15.826Z,100.00
2023-03-25T01:59:20.419Z,100.00
2023-03-25T02:02:25.380Z,100.00
2023-03-25T02:05:35.797Z,100.00
2023-03-25T02:08:41.528Z,100.00
2023-03-25T02:11:43.072Z,100.00
2023-03-25T02:14:44.558Z,100.00
2023-03-25T02:17:46.549Z,100.00
2023-03-25T02:21:23.168Z,100.00
2023-03-25T02:24:53.959Z,100.00
2023-03-25T02:28:10.148Z,100.00
2023-03-25T02:31:38.536Z,100.00
2023-03-25T02:35:01.855Z,100.00
2023-03-25T02:38:28.163Z,100.00
2023-03-25T02:41:48.172Z,100.00
2023-03-25T02:44:53.029Z,100.00
2023-03-25T02:48:00.888Z,100.00
2023-03-25T02:51:10.965Z,100.00
2023-03-25T02:54:13.913Z,100.00
2023-03-25T02:57:19.014Z,100.00
2023-03-25T03:00:28.460Z,100.00
2023-03-25T03:03:29.899Z,100.00
2023-03-25T03:06:39.900Z,100.00
2023-03-25T03:09:48.647Z,100.00
2023-03-25T03:13:05.445Z,100.00
2023-03-25T03:16:21.852Z,100.00
2023-03-25T03:19:38.266Z,100.00
2023-03-25T03:22:46.797Z,100.00
2023-03-25T03:25:54.083Z,100.00
2023-03-25T03:29:00.889Z,100.00
2023-03-25T03:32:07.363Z,100.00
2023-03-25T03:35:20.261Z,100.00
2023-03-25T03:38:25.998Z,100.00
2023-03-25T03:41:29.138Z,100.00
2023-03-25T03:44:36.602Z,100.00
2023-03-25T03:47:43.631Z,100.00
2023-03-25T03:50:53.411Z,100.00
2023-03-25T03:54:00.500Z,100.00
2023-03-25T03:57:08.386Z,100.00
2023-03-25T04:00:23.873Z,100.00
2023-03-25T04:03:39.122Z,100.00
2023-03-25T04:07:01.254Z,100.00
2023-03-25T04:10:14.570Z,100.00
2023-03-25T04:13:17.381Z,100.00
2023-03-25T04:16:19.063Z,100.00
2023-03-25T04:19:20.535Z,100.00
2023-03-25T04:22:22.124Z,100.00
2023-03-25T04:25:25.228Z,100.00
2023-03-25T04:28:26.681Z,100.00
2023-03-25T04:31:30.968Z,100.00
2023-03-25T04:34:32.476Z,100.00
2023-03-25T04:37:36.796Z,100.00
2023-03-25T04:40:40.464Z,100.00
2023-03-25T04:43:44.990Z,100.00
2023-03-25T04:46:46.614Z,100.00
2023-03-25T04:49:48.059Z,100.00
2023-03-25T04:52:50.985Z,100.00
2023-03-25T04:55:52.956Z,100.00
2023-03-25T04:58:54.517Z,100.00
2023-03-25T05:01:56.504Z,100.00
2023-03-25T05:05:02.111Z,100.00
2023-03-25T05:08:03.645Z,100.00
2023-03-25T05:11:05.273Z,100.00
2023-03-25T05:14:07.137Z,100.00
2023-03-25T05:17:08.524Z,100.00
2023-03-25T05:20:11.411Z,100.00
2023-03-25T05:23:17.646Z,100.00
2023-03-25T05:26:20.594Z,100.00
2023-03-25T05:29:22.606Z,100.00
2023-03-25T05:32:34.833Z,100.00
2023-03-25T05:35:37.320Z,100.00
2023-03-25T05:38:44.195Z,100.00
2023-03-25T05:41:45.996Z,100.00
2023-03-25T05:44:50.993Z,100.00
2023-03-25T05:47:52.477Z,100.00
2023-03-25T05:50:56.507Z,100.00
2023-03-25T05:53:59.154Z,100.00
2023-03-25T05:57:00.603Z,100.00
2023-03-25T06:00:03.121Z,100.00
2023-03-25T06:03:13.111Z,100.00
2023-03-25T06:06:18.939Z,100.00
2023-03-25T06:09:20.737Z,100.00
2023-03-25T06:12:23.882Z,100.00
2023-03-25T06:15:33.713Z,100.00
2023-03-25T06:18:36.395Z,100.00
2023-03-25T06:21:38.204Z,100.00
2023-03-25T06:24:41.119Z,100.00
2023-03-25T06:27:42.671Z,100.00
2023-03-25T06:30:48.167Z,100.00
2023-03-25T06:33:51.100Z,100.00
2023-03-25T06:36:54.310Z,100.00
2023-03-25T06:39:56.433Z,100.00
2023-03-25T06:42:59.607Z,100.00
2023-03-25T06:46:26.674Z,100.00
2023-03-25T06:49:44.777Z,100.00
2023-03-25T06:52:46.268Z,100.00
2023-03-25T06:55:47.927Z,100.00
2023-03-25T06:58:49.500Z,100.00
2023-03-25T07:01:51.096Z,99.52
2023-03-25T07:04:52.678Z,100.00
2023-03-25T07:07:54.163Z,99.03
2023-03-25T07:11:01.474Z,97.02
2023-03-25T07:14:02.923Z,94.26
2023-03-25T07:17:04.732Z,95.82
2023-03-25T07:20:06.872Z,96.00
2023-03-25T07:23:08.384Z,95.79
2023-03-25T07:26:09.801Z,94.42
2023-03-25T07:29:11.197Z,94.05
2023-03-25T07:32:13.504Z,92.21
2023-03-25T07:35:15.293Z,92.19
2023-03-25T07:38:16.732Z,91.04
2023-03-25T07:41:18.143Z,92.09
2023-03-25T07:44:36.117Z,92.51
2023-03-25T07:47:37.768Z,90.87
2023-03-25T07:50:39.262Z,91.85
2023-03-25T07:53:42.956Z,93.06
2023-03-25T07:56:44.409Z,94.71
2023-03-25T07:59:45.995Z,92.77
2023-03-25T08:02:47.540Z,93.67
2023-03-25T08:05:49.065Z,94.09
2023-03-25T08:08:50.718Z,92.93
2023-03-25T08:11:52.178Z,90.87
2023-03-25T08:14:53.567Z,86.54
2023-03-25T08:17:55.095Z,85.43
2023-03-25T08:20:56.501Z,86.06
2023-03-25T08:23:58.485Z,83.20
2023-03-25T08:27:00.642Z,83.67
2023-03-25T08:30:17.094Z,88.62
2023-03-25T08:33:18.538Z,92.16
2023-03-25T08:36:23.277Z,92.42
2023-03-25T08:39:30.356Z,93.13
2023-03-25T08:42:31.771Z,89.21
2023-03-25T08:45:34.762Z,88.62
2023-03-25T08:48:36.426Z,89.92
2023-03-25T08:51:37.877Z,91.60
2023-03-25T08:54:39.395Z,92.02
2023-03-25T08:57:42.329Z,97.02
2023-03-25T09:00:43.827Z,99.26
2023-03-25T09:03:46.640Z,99.81
2023-03-25T09:07:11.108Z,100.00
2023-03-25T09:10:12.407Z,100.00
2023-03-25T09:13:13.966Z,100.00
2023-03-25T09:16:15.560Z,99.77
2023-03-25T09:19:18.096Z,99.02
2023-03-25T09:22:19.482Z,97.87
2023-03-25T09:25:21.743Z,96.43
2023-03-25T09:28:24.169Z,95.78
2023-03-25T09:31:26.141Z,92.68
2023-03-25T09:34:28.150Z,91.93
2023-03-25T09:37:29.533Z,91.85
2023-03-25T09:40:31.699Z,92.82
2023-03-25T09:43:39.261Z,93.03
2023-03-25T09:46:41.031Z,92.19
2023-03-25T09:49:53.529Z,93.38
2023-03-25T09:53:01.950Z,92.94
2023-03-25T09:56:07.645Z,93.75
2023-03-25T09:59:18.199Z,94.52
2023-03-25T10:02:31.866Z,93.00
2023-03-25T10:05:50.571Z,92.69
2023-03-25T10:09:07.315Z,89.52
2023-03-25T10:12:27.088Z,90.48
2023-03-25T10:15:46.503Z,89.44
2023-03-25T10:19:17.289Z,90.73
2023-03-25T10:22:28.784Z,92.41
2023-03-25T10:25:35.063Z,90.14
2023-03-25T10:28:43.535Z,87.01
2023-03-25T10:32:12.565Z,88.13
2023-03-25T10:35:21.098Z,85.80
2023-03-25T10:38:24.438Z,84.89
2023-03-25T10:41:30.863Z,81.42
2023-03-25T10:44:32.299Z,79.68
2023-03-25T10:47:37.883Z,79.77
2023-03-25T10:50:41.874Z,81.91
2023-03-25T10:53:47.567Z,80.25
2023-03-25T10:56:55.412Z,80.54
2023-03-25T11:00:17.625Z,79.42
2023-03-25T11:03:34.447Z,79.03
2023-03-25T11:06:41.416Z,82.26
2023-03-25T11:09:43.020Z,85.46
2023-03-25T11:12:48.265Z,91.52
2023-03-25T11:15:53.866Z,94.75
2023-03-25T11:18:55.662Z,87.83
2023-03-25T11:22:01.647Z,84.62
2023-03-25T11:25:07.283Z,84.07
2023-03-25T11:28:27.362Z,84.67
2023-03-25T11:31:33.281Z,84.75
2023-03-25T11:34:41.970Z,84.03
2023-03-25T11:37:47.884Z,77.92
2023-03-25T11:40:52.868Z,75.62
2023-03-25T11:43:54.457Z,73.79
2023-03-25T11:47:05.480Z,72.40
2023-03-25T11:50:17.653Z,73.15
2023-03-25T11:53:21.308Z,88.19
2023-03-25T11:56:28.772Z,100.00
2023-03-25T11:59:42.687Z,100.00
2023-03-25T12:02:44.239Z,100.00
2023-03-25T12:06:05.023Z,100.00
2023-03-25T12:09:11.717Z,100.00
2023-03-25T12:12:32.169Z,100.00
2023-03-25T12:15:51.569Z,100.00
2023-03-25T12:19:16.221Z,100.00
2023-03-25T12:22:48.959Z,100.00
2023-03-25T12:26:04.435Z,100.00
2023-03-25T12:29:05.787Z,96.87
2023-03-25T12:32:16.277Z,92.54
2023-03-25T12:35:47.771Z,89.88
2023-03-25T12:39:06.205Z,89.09
2023-03-25T12:42:27.627Z,88.04
2023-03-25T12:45:59.955Z,89.08
2023-03-25T12:49:10.808Z,90.86
2023-03-25T12:52:33.230Z,87.04
2023-03-25T12:55:53.361Z,82.78
2023-03-25T12:59:09.702Z,81.69
2023-03-25T13:02:19.911Z,84.77
2023-03-25T13:05:30.856Z,80.59
2023-03-25T13:08:56.658Z,74.21
2023-03-25T13:12:09.105Z,71.73
2023-03-25T13:15:46.217Z,68.26
2023-03-25T13:19:11.326Z,63.58
2023-03-25T13:22:20.640Z,59.09
2023-03-25T13:25:36.576Z,56.13
2023-03-25T13:28:46.736Z,56.48
2023-03-25T13:31:49.663Z,55.38
2023-03-25T13:35:03.714Z,53.79
2023-03-25T13:38:24.628Z,53.24
2023-03-25T13:41:34.213Z,53.20
2023-03-25T13:44:42.934Z,49.70
2023-03-25T13:47:52.735Z,48.24
2023-03-25T13:50:56.255Z,47.73
2023-03-25T13:54:06.875Z,47.48
2023-03-25T13:57:27.010Z,47.19
2023-03-25T14:01:21.365Z,47.45
2023-03-25T14:04:42.472Z,45.14
2023-03-25T14:08:03.573Z,43.77
2023-03-25T14:11:16.791Z,43.62
2023-03-25T14:14:22.235Z,42.73
2023-03-25T14:17:23.860Z,43.86
2023-03-25T14:20:41.349Z,45.10
2023-03-25T14:23:44.545Z,47.47
2023-03-25T14:26:54.155Z,48.79
2023-03-25T14:29:58.661Z,49.57
2023-03-25T14:33:03.766Z,48.13
2023-03-25T14:36:06.210Z,47.54
2023-03-25T14:39:32.056Z,46.73
2023-03-25T14:42:42.407Z,46.37
2023-03-25T14:46:10.304Z,45.26
2023-03-25T14:49:22.706Z,46.40
2023-03-25T14:52:45.214Z,44.48
2023-03-25T14:55:47.747Z,45.83
2023-03-25T14:58:54.863Z,45.05
2023-03-25T15:02:04.093Z,44.67
2023-03-25T15:05:11.823Z,44.66
2023-03-25T15:08:17.411Z,43.52
2023-03-25T15:11:33.479Z,43.20
2023-03-25T15:14:38.690Z,42.77
2023-03-25T15:17:40.100Z,42.06
2023-03-25T15:20:42.239Z,42.87
2023-03-25T15:23:47.908Z,43.80
2023-03-25T15:26:49.803Z,44.45
2023-03-25T15:30:23.929Z,45.10
2023-03-25T15:33:44.420Z,45.02
2023-03-25T15:37:06.543Z,44.64
2023-03-25T15:40:14.469Z,44.48
2023-03-25T15:43:21.993Z,43.83
2023-03-25T15:46:37.573Z,44.13
2023-03-25T15:50:00.234Z,44.16
2023-03-25T15:53:06.129Z,43.52
2023-03-25T15:56:17.335Z,41.76
2023-03-25T15:59:30.019Z,41.18
2023-03-25T16:02:39.366Z,40.84
2023-03-25T16:05:47.442Z,41.87
2023-03-25T16:08:49.951Z,43.53
2023-03-25T16:11:51.893Z,43.65
2023-03-25T16:14:53.341Z,43.39
2023-03-25T16:17:56.768Z,43.30
2023-03-25T16:21:01.585Z,44.67
2023-03-25T16:24:07.658Z,45.06
2023-03-25T16:27:11.826Z,45.66
2023-03-25T16:30:19.694Z,45.08
2023-03-25T16:33:30.328Z,44.59
2023-03-25T16:36:31.781Z,45.31
2023-03-25T16:39:35.448Z,45.31
2023-03-25T16:42:37.198Z,45.34
2023-03-25T16:45:39.318Z,45.77
2023-03-25T16:48:47.292Z,46.69
2023-03-25T16:51:51.862Z,47.08
2023-03-25T16:54:53.243Z,47.67
2023-03-25T16:57:54.807Z,48.29
2023-03-25T17:00:57.806Z,47.43
2023-03-25T17:04:22.080Z,47.54
2023-03-25T17:07:27.819Z,48.46
2023-03-25T17:10:33.051Z,48.36
2023-03-25T17:13:42.375Z,48.24
2023-03-25T17:16:46.290Z,48.54
2023-03-25T17:19:51.569Z,48.49
2023-03-25T17:22:57.779Z,48.40
2023-03-25T17:26:07.385Z,48.83
2023-03-25T17:29:12.525Z,48.51
2023-03-25T17:32:17.902Z,49.04
2023-03-25T17:35:30.274Z,49.07
2023-03-25T17:38:38.197Z,48.68
2023-03-25T17:41:40.256Z,49.36
2023-03-25T17:44:45.208Z,50.27
2023-03-25T17:47:47.164Z,50.84
2023-03-25T17:50:54.195Z,50.51
2023-03-25T17:53:56.449Z,51.05
2023-03-25T17:56:57.995Z,50.72
2023-03-25T17:59:59.469Z,51.10
2023-03-25T18:03:01.448Z,50.86
2023-03-25T18:06:03.575Z,50.68
2023-03-25T18:09:24.316Z,50.67
2023-03-25T18:12:25.773Z,51.30
2023-03-25T18:15:27.757Z,57.62
2023-03-25T18:18:29.147Z,62.44
2023-03-25T18:21:30.776Z,67.78
2023-03-25T18:24:33.736Z,75.64
2023-03-25T18:27:43.151Z,86.08
2023-03-25T18:30:50.913Z,86.46
2023-03-25T18:33:53.032Z,91.70
2023-03-25T18:36:54.500Z,90.52
2023-03-25T18:39:56.376Z,92.75
2023-03-25T18:42:57.786Z,97.71
2023-03-25T18:45:59.270Z,96.45
2023-03-25T18:49:02.588Z,96.78
2023-03-25T18:52:04.127Z,96.48
2023-03-25T18:55:06.025Z,99.66
2023-03-25T18:58:20.372Z,99.91
2023-03-25T19:01:21.926Z,100.00
2023-03-25T19:04:23.461Z,100.00
2023-03-25T19:07:25.021Z,100.00
2023-03-25T19:10:29.357Z,100.00
2023-03-25T19:13:30.755Z,100.00
2023-03-25T19:16:32.328Z,98.06
2023-03-25T19:19:33.794Z,99.75
2023-03-25T19:22:35.318Z,100.00
2023-03-25T19:25:36.943Z,100.00
2023-03-25T19:28:38.365Z,98.99
2023-03-25T19:31:42.292Z,97.78
2023-03-25T19:34:51.247Z,96.56
2023-03-25T19:37:53.002Z,99.32
2023-03-25T19:41:20.946Z,98.32
2023-03-25T19:44:22.457Z,98.86
2023-03-25T19:47:23.854Z,100.00
2023-03-25T19:50:30.374Z,100.00
2023-03-25T19:53:31.803Z,100.00
2023-03-25T19:56:33.197Z,100.00
2023-03-25T19:59:36.082Z,100.00
2023-03-25T20:02:37.697Z,100.00
2023-03-25T20:05:39.960Z,100.00
2023-03-25T20:08:41.340Z,100.00
2023-03-25T20:11:42.727Z,100.00
2023-03-25T20:14:44.222Z,100.00
2023-03-25T20:17:47.736Z,100.00
2023-03-25T20:20:49.190Z,100.00
2023-03-25T20:23:50.739Z,100.00
2023-03-25T20:26:52.322Z,100.00
2023-03-25T20:29:54.483Z,100.00
2023-03-25T20:32:55.932Z,100.00
2023-03-25T20:35:57.437Z,100.00
2023-03-25T20:38:59.333Z,98.20
2023-03-25T20:42:01.256Z,95.82
2023-03-25T20:45:03.008Z,94.23
2023-03-25T20:48:06.007Z,93.21
2023-03-25T20:51:10.320Z,94.14
2023-03-25T20:54:15.603Z,93.46
2023-03-25T20:57:17.143Z,94.67
2023-03-25T21:00:18.602Z,95.44
2023-03-25T21:03:20.044Z,96.20
2023-03-25T21:06:24.368Z,96.61
2023-03-25T21:09:28.127Z,98.28
2023-03-25T21:12:42.490Z,99.15
2023-03-25T21:15:45.947Z,99.34
2023-03-25T21:18:49.200Z,99.33
2023-03-25T21:21:50.717Z,98.98
2023-03-25T21:24:52.233Z,99.89
2023-03-25T21:27:54.056Z,100.00
2023-03-25T21:31:19.930Z,99.28
2023-03-25T21:34:21.962Z,99.90
2023-03-25T21:37:23.378Z,99.91
2023-03-25T21:40:24.843Z,99.61
2023-03-25T21:43:27.452Z,99.99
2023-03-25T21:46:29.101Z,100.00
2023-03-25T21:49:30.874Z,100.00
2023-03-25T21:52:32.282Z,100.00
2023-03-25T21:55:34.166Z,98.99
2023-03-25T21:58:36.596Z,97.39
2023-03-25T22:01:41.676Z,97.52
2023-03-25T22:04:43.319Z,94.39
2023-03-25T22:07:44.981Z,95.47
2023-03-25T22:10:46.387Z,97.05
2023-03-25T22:13:49.171Z,97.18
2023-03-25T22:16:50.695Z,97.72
2023-03-25T22:19:52.101Z,96.59
2023-03-25T22:22:53.770Z,95.38
2023-03-25T22:25:55.452Z,93.96
2023-03-25T22:29:00.554Z,93.76
2023-03-25T22:32:06.899Z,94.57
2023-03-25T22:35:08.824Z,93.23
2023-03-25T22:38:10.278Z,92.35
2023-03-25T22:41:13.653Z,93.52
2023-03-25T22:44:17.612Z,93.38
2023-03-25T22:47:19.021Z,93.18
2023-03-25T22:50:20.627Z,94.66
2023-03-25T22:53:22.884Z,94.51
2023-03-25T22:56:25.745Z,94.99
2023-03-25T22:59:27.151Z,95.67
2023-03-25T23:02:28.587Z,93.56
2023-03-25T23:05:30.173Z,94.68
2023-03-25T23:08:37.805Z,94.51
2023-03-25T23:11:39.248Z,94.81
2023-03-25T23:14:42.459Z,94.35
2023-03-25T23:17:43.924Z,95.57
2023-03-25T23:20:48.564Z,99.13
2023-03-25T23:23:52.746Z,100.00
2023-03-25T23:26:55.636Z,100.00
2023-03-25T23:29:58.183Z,100.00
2023-03-25T23:32:59.607Z,100.00
2023-03-25T23:36:02.763Z,100.00
2023-03-25T23:39:07.125Z,100.00
2023-03-25T23:42:09.023Z,100.00
2023-03-25T23:45:10.902Z,100.00
2023-03-25T23:48:12.436Z,100.00
2023-03-25T23:51:20.262Z,100.00
2023-03-25T23:54:21.816Z,100.00
2023-03-25T23:57:23.181Z,100.00
